Back to Top

Language: 

My Weather Underground Personal Weather Station Historical Data with Graphs...

Delerius Weather Station Historical Data
Daily Summary for August 27, 2017 Units:  English    Metric   Both
« Previous Day
Next Day »
Daily Weekly Monthly Yearly Custom
  High: Low: Average:
Temperature: 75.4 °F 48.0 °F 62.5 °F
Dew Point: 59.2 °F 46.1 °F 53.6 °F
Humidity: 96 % 53 % 74 %
Wind Speed: 7.0 mph 0.0 mph 2.3 mph
Wind Gust: 12.0 mph - -
Wind:- - West
Pressure: 30.08 in 30.03 in -
Precipitation: 0.00 in    
Historical Graphs
 
 
Tabular Data for August 27, 2017
Time Temperature Dew Point Pressure Wind Wind Speed Wind Gust Humidity Rainfall Rate (Hourly) solar Conditions
00:02 54.0 °F 49.9 °F 30.04 in WNW 3.0 mph 7.0 mph 86 % 0.00 in 0 W/m2
00:07 54.0 °F 49.9 °F 30.04 in WNW 4.0 mph 7.0 mph 86 % 0.00 in 0 W/m2
00:12 54.0 °F 49.9 °F 30.05 in WNW 3.0 mph 7.0 mph 86 % 0.00 in 0 W/m2
00:17 54.0 °F 49.9 °F 30.05 in WNW 2.0 mph 7.0 mph 86 % 0.00 in 0 W/m2
00:23 53.8 °F 49.7 °F 30.04 in WNW 2.0 mph 5.0 mph 86 % 0.00 in 0 W/m2
00:28 53.4 °F 49.3 °F 30.05 in WNW 2.0 mph 5.0 mph 86 % 0.00 in 0 W/m2
00:33 53.2 °F 49.2 °F 30.05 in WNW 3.0 mph 6.0 mph 86 % 0.00 in 0 W/m2
00:38 53.1 °F 49.0 °F 30.05 in WNW 4.0 mph 6.0 mph 86 % 0.00 in 0 W/m2
00:43 52.9 °F 48.8 °F 30.04 in WNW 4.0 mph 6.0 mph 86 % 0.00 in 0 W/m2
00:48 52.9 °F 49.1 °F 30.04 in WNW 3.0 mph 5.0 mph 87 % 0.00 in 0 W/m2
00:53 52.7 °F 48.9 °F 30.05 in WNW 2.0 mph 5.0 mph 87 % 0.00 in 0 W/m2
00:58 52.5 °F 48.8 °F 30.05 in WNW 1.0 mph 4.0 mph 87 % 0.00 in 0 W/m2
01:03 52.3 °F 48.6 °F 30.05 in WNW 1.0 mph 4.0 mph 87 % 0.00 in 0 W/m2
01:08 52.3 °F 48.6 °F 30.05 in WNW 2.0 mph 5.0 mph 87 % 0.00 in 0 W/m2
01:13 52.2 °F 48.7 °F 30.05 in WNW 3.0 mph 5.0 mph 88 % 0.00 in 0 W/m2
01:18 52.2 °F 48.7 °F 30.05 in WNW 3.0 mph 5.0 mph 88 % 0.00 in 0 W/m2
01:23 52.2 °F 48.7 °F 30.05 in WNW 2.0 mph 5.0 mph 88 % 0.00 in 0 W/m2
01:28 52.0 °F 48.5 °F 30.05 in WNW 1.0 mph 4.0 mph 88 % 0.00 in 0 W/m2
01:33 52.0 °F 48.5 °F 30.05 in Calm   4.0 mph 88 % 0.00 in 0 W/m2
01:38 51.8 °F 48.4 °F 30.05 in Calm     88 % 0.00 in 0 W/m2
01:43 51.4 °F 47.7 °F 30.05 in Calm     87 % 0.00 in 0 W/m2
01:48 51.3 °F 47.5 °F 30.05 in Calm     87 % 0.00 in 0 W/m2
01:53 51.1 °F 47.3 °F 30.05 in Calm     87 % 0.00 in 0 W/m2
01:58 50.7 °F 47.3 °F 30.05 in Calm     88 % 0.00 in 0 W/m2
02:03 50.5 °F 47.1 °F 30.05 in Calm     88 % 0.00 in 0 W/m2
02:08 50.2 °F 46.8 °F 30.05 in Calm     88 % 0.00 in 0 W/m2
02:13 50.2 °F 47.1 °F 30.05 in Calm   1.0 mph 89 % 0.00 in 0 W/m2
02:18 49.8 °F 46.7 °F 30.05 in Calm   1.0 mph 89 % 0.00 in 0 W/m2
02:19 49.8 °F 46.7 °F 30.05 in Calm   1.0 mph 89 % 0.00 in 0 W/m2
02:24 49.6 °F 46.8 °F 30.05 in Calm     90 % 0.00 in 0 W/m2
02:29 49.8 °F 47.0 °F 30.05 in Calm     90 % 0.00 in 0 W/m2
02:34 49.6 °F 46.8 °F 30.05 in Calm     90 % 0.00 in 0 W/m2
02:39 49.5 °F 46.6 °F 30.05 in West 2.0 mph 5.0 mph 90 % 0.00 in 0 W/m2
02:44 49.6 °F 47.1 °F 30.05 in West 2.0 mph 5.0 mph 91 % 0.00 in 0 W/m2
02:49 49.6 °F 47.1 °F 30.05 in West 1.0 mph 5.0 mph 91 % 0.00 in 0 W/m2
02:54 49.5 °F 46.6 °F 30.05 in Calm     90 % 0.00 in 0 W/m2
02:59 49.3 °F 46.5 °F 30.05 in Calm     90 % 0.00 in 0 W/m2
03:04 48.9 °F 46.1 °F 30.05 in Calm   1.0 mph 90 % 0.00 in 0 W/m2
03:09 48.7 °F 46.2 °F 30.05 in Calm   4.0 mph 91 % 0.00 in 0 W/m2
03:10 48.7 °F 46.2 °F 30.05 in Calm   4.0 mph 91 % 0.00 in 0 W/m2
03:15 48.7 °F 46.2 °F 30.05 in West 2.0 mph 6.0 mph 91 % 0.00 in 0 W/m2
03:20 48.7 °F 46.2 °F 30.05 in West 3.0 mph 6.0 mph 91 % 0.00 in 0 W/m2
03:25 49.1 °F 46.9 °F 30.05 in West 2.0 mph 5.0 mph 92 % 0.00 in 0 W/m2
03:30 49.1 °F 46.9 °F 30.05 in West 2.0 mph 4.0 mph 92 % 0.00 in 0 W/m2
03:35 49.3 °F 47.1 °F 30.05 in West 2.0 mph 6.0 mph 92 % 0.00 in 0 W/m2
03:40 49.5 °F 47.2 °F 30.05 in WNW 2.0 mph 6.0 mph 92 % 0.00 in 0 W/m2
03:45 49.3 °F 46.8 °F 30.05 in WNW 1.0 mph 5.0 mph 91 % 0.00 in 0 W/m2
03:50 49.3 °F 46.8 °F 30.05 in WNW 1.0 mph 5.0 mph 91 % 0.00 in 0 W/m2
03:55 49.3 °F 47.1 °F 30.05 in WNW 3.0 mph 8.0 mph 92 % 0.00 in 0 W/m2
04:00 49.6 °F 47.4 °F 30.05 in WNW 4.0 mph 9.0 mph 92 % 0.00 in 0 W/m2
04:05 49.3 °F 46.8 °F 30.05 in WNW 3.0 mph 9.0 mph 91 % 0.00 in 0 W/m2
04:10 49.1 °F 46.6 °F 30.05 in WNW 1.0 mph 6.0 mph 91 % 0.00 in 0 W/m2
04:15 48.9 °F 46.4 °F 30.05 in Calm   5.0 mph 91 % 0.00 in 0 W/m2
04:20 48.7 °F 46.2 °F 30.05 in WNW 1.0 mph 5.0 mph 91 % 0.00 in 0 W/m2
04:21 48.7 °F 46.2 °F 30.05 in WNW 1.0 mph 5.0 mph 91 % 0.00 in 0 W/m2
04:26 48.6 °F 46.1 °F 30.05 in WNW 2.0 mph 5.0 mph 91 % 0.00 in 0 W/m2
04:31 48.7 °F 46.5 °F 30.05 in WNW 3.0 mph 6.0 mph 92 % 0.00 in 0 W/m2
04:36 48.9 °F 46.7 °F 30.05 in WNW 3.0 mph 6.0 mph 92 % 0.00 in 0 W/m2
04:41 48.7 °F 46.5 °F 30.05 in WNW 2.0 mph 5.0 mph 92 % 0.00 in 0 W/m2
04:46 48.7 °F 46.5 °F 30.05 in WNW 2.0 mph 5.0 mph 92 % 0.00 in 0 W/m2
04:51 48.7 °F 46.5 °F 30.05 in WNW 1.0 mph 3.0 mph 92 % 0.00 in 0 W/m2
04:56 48.7 °F 46.5 °F 30.05 in Calm   2.0 mph 92 % 0.00 in 0 W/m2
05:01 48.7 °F 46.5 °F 30.05 in Calm   1.0 mph 92 % 0.00 in 0 W/m2
05:06 48.6 °F 46.3 °F 30.05 in Calm   4.0 mph 92 % 0.00 in 0 W/m2
05:11 48.7 °F 46.8 °F 30.05 in WNW 2.0 mph 6.0 mph 93 % 0.00 in 0 W/m2
05:12 48.7 °F 46.8 °F 30.05 in WNW 2.0 mph 6.0 mph 93 % 0.00 in 0 W/m2
05:17 49.1 °F 47.2 °F 30.05 in WNW 4.0 mph 7.0 mph 93 % 0.00 in 0 W/m2
05:22 49.5 °F 47.5 °F 30.05 in WNW 4.0 mph 7.0 mph 93 % 0.00 in 0 W/m2
05:27 49.3 °F 47.1 °F 30.05 in WNW 2.0 mph 6.0 mph 92 % 0.00 in 0 W/m2
05:32 49.1 °F 46.9 °F 30.05 in Calm   4.0 mph 92 % 0.00 in 0 W/m2
05:37 48.9 °F 46.7 °F 30.05 in Calm   2.0 mph 92 % 0.00 in 0 W/m2
05:42 48.7 °F 46.5 °F 30.05 in Calm   1.0 mph 92 % 0.00 in 0 W/m2
05:47 48.6 °F 46.3 °F 30.05 in Calm   3.0 mph 92 % 0.00 in 0 W/m2
05:52 48.6 °F 46.3 °F 30.05 in WNW 1.0 mph 4.0 mph 92 % 0.00 in 0 W/m2
05:58 48.4 °F 46.2 °F 30.05 in WNW 1.0 mph 4.0 mph 92 % 0.00 in 0 W/m2
06:02 48.4 °F 46.2 °F 30.05 in Calm   2.0 mph 92 % 0.00 in 5 W/m2
06:08 48.4 °F 46.2 °F 30.05 in Calm     92 % 0.00 in 5 W/m2
06:13 48.4 °F 46.4 °F 30.06 in Calm     93 % 0.00 in 7 W/m2
06:18 48.4 °F 46.4 °F 30.06 in Calm     93 % 0.00 in 11 W/m2
06:23 48.2 °F 46.3 °F 30.06 in Calm     93 % 0.00 in 14 W/m2
06:28 48.2 °F 46.3 °F 30.06 in Calm     93 % 0.00 in 18 W/m2
06:33 48.0 °F 46.1 °F 30.06 in Calm   1.0 mph 93 % 0.00 in 21 W/m2
06:38 48.0 °F 46.1 °F 30.06 in Calm   1.0 mph 93 % 0.00 in 25 W/m2
06:43 48.0 °F 46.1 °F 30.06 in Calm     93 % 0.00 in 26 W/m2
06:48 48.0 °F 46.1 °F 30.06 in Calm     93 % 0.00 in 28 W/m2
06:53 48.2 °F 46.3 °F 30.06 in Calm     93 % 0.00 in 32 W/m2
06:58 48.4 °F 46.7 °F 30.07 in Calm   2.0 mph 94 % 0.00 in 46 W/m2
07:03 48.6 °F 46.9 °F 30.07 in Calm   2.0 mph 94 % 0.00 in 67 W/m2
07:08 48.9 °F 47.3 °F 30.07 in Calm   1.0 mph 94 % 0.00 in 97 W/m2
07:13 49.5 °F 48.1 °F 30.07 in Calm     95 % 0.00 in 130 W/m2
07:18 50.2 °F 48.8 °F 30.07 in Calm     95 % 0.00 in 146 W/m2
07:23 51.1 °F 50.0 °F 30.07 in Calm     96 % 0.00 in 128 W/m2
07:28 51.6 °F 49.9 °F 30.07 in Calm     94 % 0.00 in 179 W/m2
07:33 52.2 °F 50.2 °F 30.07 in Calm     93 % 0.00 in 190 W/m2
07:38 52.7 °F 50.7 °F 30.07 in Calm     93 % 0.00 in 197 W/m2
07:43 53.4 °F 51.2 °F 30.07 in Calm     92 % 0.00 in 207 W/m2
07:48 54.1 °F 51.6 °F 30.07 in Calm     91 % 0.00 in 213 W/m2
07:53 54.7 °F 51.8 °F 30.07 in Calm     90 % 0.00 in 225 W/m2
07:58 55.2 °F 52.0 °F 30.08 in Calm     89 % 0.00 in 239 W/m2
08:03 55.8 °F 52.3 °F 30.07 in Calm     88 % 0.00 in 255 W/m2
08:08 56.5 °F 52.7 °F 30.07 in Calm   4.0 mph 87 % 0.00 in 271 W/m2
08:13 57.0 °F 52.9 °F 30.08 in Calm   4.0 mph 86 % 0.00 in 288 W/m2
08:18 57.7 °F 53.6 °F 30.07 in Calm   3.0 mph 86 % 0.00 in 283 W/m2
08:23 58.5 °F 54.0 °F 30.08 in West 1.0 mph 5.0 mph 85 % 0.00 in 316 W/m2
08:28 59.5 °F 54.4 °F 30.08 in West 2.0 mph 6.0 mph 83 % 0.00 in 329 W/m2
08:33 60.4 °F 54.2 °F 30.08 in West 3.0 mph 6.0 mph 80 % 0.00 in 338 W/m2
08:38 61.3 °F 54.4 °F 30.08 in West 3.0 mph 6.0 mph 78 % 0.00 in 350 W/m2
08:43 62.2 °F 54.6 °F 30.08 in WNW 3.0 mph 8.0 mph 76 % 0.00 in 362 W/m2
08:48 63.1 °F 54.3 °F 30.08 in WNW 4.0 mph 8.0 mph 73 % 0.00 in 374 W/m2
08:53 63.7 °F 54.1 °F 30.08 in WNW 4.0 mph 8.0 mph 71 % 0.00 in 388 W/m2
08:58 64.2 °F 54.2 °F 30.08 in West 4.0 mph 8.0 mph 70 % 0.00 in 403 W/m2
09:03 64.6 °F 54.2 °F 30.08 in West 5.0 mph 8.0 mph 69 % 0.00 in 424 W/m2
09:08 64.9 °F 54.1 °F 30.08 in WNW 4.0 mph 7.0 mph 68 % 0.00 in 464 W/m2
09:13 65.3 °F 54.1 °F 30.08 in WNW 4.0 mph 8.0 mph 67 % 0.00 in 290 W/m2
09:18 65.8 °F 54.6 °F 30.08 in WNW 5.0 mph 9.0 mph 67 % 0.00 in 257 W/m2
09:23 66.0 °F 54.3 °F 30.08 in WNW 5.0 mph 9.0 mph 66 % 0.00 in 267 W/m2
09:28 66.2 °F 53.7 °F 30.08 in WNW 5.0 mph 8.0 mph 64 % 0.00 in 241 W/m2
09:33 66.0 °F 53.9 °F 30.08 in WNW 4.0 mph 8.0 mph 65 % 0.00 in 246 W/m2
09:38 66.0 °F 53.5 °F 30.08 in WNW 3.0 mph 6.0 mph 64 % 0.00 in 364 W/m2
09:43 66.0 °F 53.5 °F 30.08 in WNW 2.0 mph 5.0 mph 64 % 0.00 in 497 W/m2
09:48 66.2 °F 53.7 °F 30.08 in WNW 2.0 mph 5.0 mph 64 % 0.00 in 533 W/m2
09:53 66.7 °F 53.3 °F 30.08 in West 1.0 mph 5.0 mph 62 % 0.00 in 522 W/m2
09:58 66.9 °F 53.5 °F 30.08 in West 2.0 mph 6.0 mph 62 % 0.00 in 552 W/m2
10:04 67.3 °F 53.8 °F 30.08 in West 2.0 mph 6.0 mph 62 % 0.00 in 563 W/m2
10:09 67.6 °F 53.7 °F 30.08 in West 2.0 mph 6.0 mph 61 % 0.00 in 580 W/m2
10:14 67.8 °F 53.9 °F 30.08 in West 2.0 mph 5.0 mph 61 % 0.00 in 589 W/m2
10:19 67.6 °F 53.7 °F 30.08 in WSW 2.0 mph 7.0 mph 61 % 0.00 in 564 W/m2
10:24 67.6 °F 53.7 °F 30.08 in SW 2.0 mph 7.0 mph 61 % 0.00 in 708 W/m2
10:29 68.2 °F 54.7 °F 30.08 in SW 2.0 mph 5.0 mph 62 % 0.00 in 742 W/m2
10:34 68.5 °F 55.0 °F 30.08 in WSW 4.0 mph 11.0 mph 62 % 0.00 in 455 W/m2
10:39 68.2 °F 54.7 °F 30.08 in WSW 6.0 mph 11.0 mph 62 % 0.00 in 241 W/m2
10:44 67.8 °F 54.8 °F 30.08 in WSW 5.0 mph 8.0 mph 63 % 0.00 in 257 W/m2
10:49 67.6 °F 54.6 °F 30.08 in West 5.0 mph 9.0 mph 63 % 0.00 in 234 W/m2
10:54 67.6 °F 55.0 °F 30.08 in West 4.0 mph 9.0 mph 64 % 0.00 in 227 W/m2
10:59 67.5 °F 54.9 °F 30.07 in WSW 3.0 mph 7.0 mph 64 % 0.00 in 309 W/m2
11:04 67.5 °F 55.7 °F 30.07 in SW 2.0 mph 7.0 mph 66 % 0.00 in 870 W/m2
11:09 68.0 °F 55.8 °F 30.07 in WSW 2.0 mph 7.0 mph 65 % 0.00 in 649 W/m2
11:14 68.4 °F 55.7 °F 30.07 in West 3.0 mph 7.0 mph 64 % 0.00 in 603 W/m2
11:19 69.1 °F 56.0 °F 30.07 in West 2.0 mph 6.0 mph 63 % 0.00 in 710 W/m2
11:24 69.6 °F 56.5 °F 30.07 in NW 1.0 mph 5.0 mph 63 % 0.00 in 756 W/m2
11:29 70.2 °F 57.0 °F 30.07 in West 2.0 mph 6.0 mph 63 % 0.00 in 858 W/m2
11:34 70.9 °F 57.2 °F 30.07 in West 4.0 mph 7.0 mph 62 % 0.00 in 758 W/m2
11:39 71.6 °F 57.0 °F 30.07 in WNW 5.0 mph 12.0 mph 60 % 0.00 in 643 W/m2
11:44 72.0 °F 56.4 °F 30.07 in WNW 5.0 mph 12.0 mph 58 % 0.00 in 190 W/m2
11:49 72.0 °F 56.8 °F 30.07 in WNW 4.0 mph 9.0 mph 59 % 0.00 in 265 W/m2
11:54 71.8 °F 56.7 °F 30.07 in NW 3.0 mph 8.0 mph 59 % 0.00 in 313 W/m2
11:59 71.6 °F 56.5 °F 30.07 in West 4.0 mph 10.0 mph 59 % 0.00 in 392 W/m2
12:04 71.2 °F 56.6 °F 30.07 in West 6.0 mph 10.0 mph 60 % 0.00 in 860 W/m2
12:09 71.6 °F 57.4 °F 30.07 in West 6.0 mph 9.0 mph 61 % 0.00 in 860 W/m2
12:13 71.8 °F 57.1 °F 30.06 in West 6.0 mph 9.0 mph 60 % 0.00 in 875 W/m2
12:18 72.1 °F 57.0 °F 30.06 in WNW 4.0 mph 9.0 mph 59 % 0.00 in 844 W/m2
12:23 72.1 °F 57.0 °F 30.06 in WNW 3.0 mph 9.0 mph 59 % 0.00 in 715 W/m2
12:28 72.3 °F 57.2 °F 30.06 in West 5.0 mph 11.0 mph 59 % 0.00 in 826 W/m2
12:33 72.5 °F 56.9 °F 30.06 in West 7.0 mph 11.0 mph 58 % 0.00 in 339 W/m2
12:38 72.7 °F 57.5 °F 30.06 in West 7.0 mph 12.0 mph 59 % 0.00 in 986 W/m2
12:43 72.7 °F 57.5 °F 30.06 in West 6.0 mph 12.0 mph 59 % 0.00 in 670 W/m2
12:48 72.7 °F 58.0 °F 30.06 in West 7.0 mph 11.0 mph 60 % 0.00 in 636 W/m2
12:53 72.7 °F 57.0 °F 30.06 in West 6.0 mph 11.0 mph 58 % 0.00 in 323 W/m2
12:58 72.7 °F 57.5 °F 30.06 in WNW 6.0 mph 11.0 mph 59 % 0.00 in 302 W/m2
13:03 72.5 °F 56.9 °F 30.06 in WNW 5.0 mph 11.0 mph 58 % 0.00 in 285 W/m2
13:08 72.1 °F 56.5 °F 30.06 in West 5.0 mph 9.0 mph 58 % 0.00 in 341 W/m2
13:13 72.1 °F 57.0 °F 30.06 in West 5.0 mph 9.0 mph 59 % 0.00 in 327 W/m2
13:18 72.1 °F 56.5 °F 30.06 in WNW 4.0 mph 9.0 mph 58 % 0.00 in 343 W/m2
13:23 72.1 °F 57.5 °F 30.06 in WNW 5.0 mph 9.0 mph 60 % 0.00 in 265 W/m2
13:28 72.1 °F 57.0 °F 30.06 in WNW 3.0 mph 9.0 mph 59 % 0.00 in 241 W/m2
13:33 72.0 °F 57.3 °F 30.06 in WNW 2.0 mph 9.0 mph 60 % 0.00 in 322 W/m2
13:38 72.0 °F 57.3 °F 30.06 in NW 4.0 mph 10.0 mph 60 % 0.00 in 274 W/m2
13:43 72.0 °F 56.8 °F 30.06 in NW 5.0 mph 10.0 mph 59 % 0.00 in 415 W/m2
13:48 72.0 °F 57.3 °F 30.06 in WNW 5.0 mph 8.0 mph 60 % 0.00 in 373 W/m2
13:53 72.1 °F 57.0 °F 30.06 in West 3.0 mph 7.0 mph 59 % 0.00 in 422 W/m2
13:58 72.3 °F 57.2 °F 30.06 in West 3.0 mph 10.0 mph 59 % 0.00 in 345 W/m2
14:03 72.7 °F 58.0 °F 30.06 in WNW 4.0 mph 10.0 mph 60 % 0.00 in 332 W/m2
14:08 72.9 °F 57.7 °F 30.06 in NW 6.0 mph 11.0 mph 59 % 0.00 in 341 W/m2
14:13 72.9 °F 57.7 °F 30.06 in WNW 6.0 mph 11.0 mph 59 % 0.00 in 336 W/m2
14:18 72.9 °F 57.7 °F 30.06 in West 6.0 mph 9.0 mph 59 % 0.00 in 427 W/m2
14:23 72.9 °F 57.2 °F 30.06 in West 6.0 mph 9.0 mph 58 % 0.00 in 568 W/m2
14:28 73.2 °F 57.1 °F 30.06 in West 6.0 mph 9.0 mph 57 % 0.00 in 397 W/m2
14:33 73.6 °F 57.9 °F 30.06 in West 6.0 mph 11.0 mph 58 % 0.00 in 643 W/m2
14:38 73.9 °F 57.3 °F 30.05 in West 6.0 mph 11.0 mph 56 % 0.00 in 515 W/m2
14:43 73.9 °F 57.7 °F 30.05 in West 6.0 mph 9.0 mph 57 % 0.00 in 668 W/m2
14:48 73.9 °F 58.2 °F 30.05 in WSW 5.0 mph 9.0 mph 58 % 0.00 in 749 W/m2
14:53 73.6 °F 57.9 °F 30.05 in SW 6.0 mph 10.0 mph 58 % 0.00 in 733 W/m2
14:58 73.6 °F 57.9 °F 30.05 in SW 7.0 mph 10.0 mph 58 % 0.00 in 749 W/m2
15:03 73.0 °F 57.9 °F 30.05 in SW 6.0 mph 10.0 mph 59 % 0.00 in 745 W/m2
15:08 72.9 °F 57.7 °F 30.05 in SSW 6.0 mph 9.0 mph 59 % 0.00 in 687 W/m2
15:13 73.0 °F 57.9 °F 30.05 in SW 5.0 mph 8.0 mph 59 % 0.00 in 696 W/m2
15:18 73.4 °F 58.2 °F 30.05 in WSW 4.0 mph 6.0 mph 59 % 0.00 in 675 W/m2
15:23 73.8 °F 58.1 °F 30.05 in SSW 4.0 mph 8.0 mph 58 % 0.00 in 663 W/m2
15:28 73.8 °F 58.5 °F 30.05 in South 4.0 mph 9.0 mph 59 % 0.00 in 659 W/m2
15:34 73.9 °F 58.2 °F 30.05 in SSW 3.0 mph 9.0 mph 58 % 0.00 in 668 W/m2
15:39 74.3 °F 58.1 °F 30.05 in SW 2.0 mph 6.0 mph 57 % 0.00 in 279 W/m2
15:44 74.1 °F 57.9 °F 30.05 in SW 2.0 mph 6.0 mph 57 % 0.00 in 193 W/m2
15:49 73.9 °F 58.2 °F 30.05 in SSW 2.0 mph 8.0 mph 58 % 0.00 in 214 W/m2
15:54 73.6 °F 57.9 °F 30.05 in SSW 2.0 mph 8.0 mph 58 % 0.00 in 262 W/m2
15:59 73.2 °F 58.0 °F 30.05 in SSW 3.0 mph 6.0 mph 59 % 0.00 in 278 W/m2
16:04 73.2 °F 57.6 °F 30.05 in SSW 3.0 mph 6.0 mph 58 % 0.00 in 322 W/m2
16:09 73.2 °F 57.6 °F 30.04 in South 1.0 mph 5.0 mph 58 % 0.00 in 230 W/m2
16:14 73.0 °F 57.4 °F 30.05 in SSW 2.0 mph 6.0 mph 58 % 0.00 in 211 W/m2
16:19 73.0 °F 57.9 °F 30.04 in SSW 3.0 mph 6.0 mph 59 % 0.00 in 250 W/m2
16:24 73.0 °F 58.3 °F 30.05 in SSW 2.0 mph 6.0 mph 60 % 0.00 in 297 W/m2
16:29 73.0 °F 58.3 °F 30.05 in SSW 2.0 mph 6.0 mph 60 % 0.00 in 193 W/m2
16:34 73.2 °F 58.0 °F 30.04 in SSW 2.0 mph 6.0 mph 59 % 0.00 in 615 W/m2
16:39 73.6 °F 58.8 °F 30.04 in SSW 2.0 mph 6.0 mph 60 % 0.00 in 601 W/m2
16:44 73.8 °F 58.1 °F 30.04 in SSW 4.0 mph 6.0 mph 58 % 0.00 in 190 W/m2
16:49 74.1 °F 57.4 °F 30.04 in SW 3.0 mph 6.0 mph 56 % 0.00 in 237 W/m2
16:54 74.8 °F 58.6 °F 30.04 in WSW 2.0 mph 7.0 mph 57 % 0.00 in 622 W/m2
16:59 75.2 °F 57.9 °F 30.04 in WSW 4.0 mph 8.0 mph 55 % 0.00 in 622 W/m2
17:04 75.2 °F 57.4 °F 30.04 in WSW 4.0 mph 8.0 mph 54 % 0.00 in 225 W/m2
17:09 75.0 °F 57.2 °F 30.03 in West 4.0 mph 8.0 mph 54 % 0.00 in 225 W/m2
17:14 75.0 °F 57.8 °F 30.03 in West 3.0 mph 6.0 mph 55 % 0.00 in 554 W/m2
17:19 75.2 °F 56.9 °F 30.04 in WSW 5.0 mph 12.0 mph 53 % 0.00 in 497 W/m2
17:24 75.4 °F 57.1 °F 30.04 in West 7.0 mph 12.0 mph 53 % 0.00 in 295 W/m2
17:29 75.4 °F 57.6 °F 30.03 in West 7.0 mph 12.0 mph 54 % 0.00 in 216 W/m2
17:34 75.2 °F 56.9 °F 30.03 in West 7.0 mph 12.0 mph 53 % 0.00 in 169 W/m2
17:39 75.0 °F 57.2 °F 30.03 in West 7.0 mph 12.0 mph 54 % 0.00 in 158 W/m2
17:44 75.0 °F 57.2 °F 30.03 in West 6.0 mph 10.0 mph 54 % 0.00 in 160 W/m2
17:49 74.8 °F 57.6 °F 30.03 in West 6.0 mph 11.0 mph 55 % 0.00 in 151 W/m2
17:54 74.5 °F 57.3 °F 30.03 in West 6.0 mph 11.0 mph 55 % 0.00 in 171 W/m2
17:59 74.1 °F 57.4 °F 30.03 in WSW 6.0 mph 10.0 mph 56 % 0.00 in 223 W/m2
18:04 73.9 °F 57.7 °F 30.03 in WSW 5.0 mph 9.0 mph 57 % 0.00 in 185 W/m2
18:09 73.9 °F 57.7 °F 30.03 in SW 5.0 mph 9.0 mph 57 % 0.00 in 209 W/m2
18:14 73.9 °F 58.2 °F 30.03 in WSW 5.0 mph 9.0 mph 58 % 0.00 in 105 W/m2
18:19 73.8 °F 57.6 °F 30.03 in WSW 6.0 mph 12.0 mph 57 % 0.00 in 95 W/m2
18:24 73.4 °F 57.2 °F 30.03 in WSW 7.0 mph 12.0 mph 57 % 0.00 in 83 W/m2
18:29 72.9 °F 57.2 °F 30.03 in WSW 6.0 mph 10.0 mph 58 % 0.00 in 62 W/m2
18:34 72.5 °F 56.9 °F 30.03 in WSW 6.0 mph 10.0 mph 58 % 0.00 in 58 W/m2
18:39 72.3 °F 57.2 °F 30.03 in WSW 5.0 mph 8.0 mph 59 % 0.00 in 49 W/m2
18:44 72.0 °F 56.8 °F 30.03 in WSW 5.0 mph 9.0 mph 59 % 0.00 in 47 W/m2
18:49 71.8 °F 57.1 °F 30.03 in WSW 5.0 mph 9.0 mph 60 % 0.00 in 58 W/m2
18:54 71.4 °F 57.3 °F 30.03 in WSW 4.0 mph 9.0 mph 61 % 0.00 in 69 W/m2
18:59 71.4 °F 57.3 °F 30.03 in WSW 3.0 mph 6.0 mph 61 % 0.00 in 114 W/m2
19:04 71.4 °F 57.7 °F 30.03 in SW 2.0 mph 5.0 mph 62 % 0.00 in 97 W/m2
19:09 71.4 °F 58.2 °F 30.03 in WSW 2.0 mph 5.0 mph 63 % 0.00 in 107 W/m2
19:14 71.2 °F 58.4 °F 30.03 in SW 1.0 mph 4.0 mph 64 % 0.00 in 98 W/m2
19:19 71.2 °F 58.4 °F 30.03 in WSW 1.0 mph 4.0 mph 64 % 0.00 in 95 W/m2
19:24 71.1 °F 58.3 °F 30.03 in WSW 1.0 mph 4.0 mph 64 % 0.00 in 69 W/m2
19:29 71.1 °F 58.7 °F 30.03 in WSW 1.0 mph 4.0 mph 65 % 0.00 in 49 W/m2
19:32 70.9 °F 58.5 °F 30.03 in SW 1.0 mph 4.0 mph 65 % 0.00 in 42 W/m2
19:36 70.9 °F 58.5 °F 30.03 in WSW 1.0 mph 4.0 mph 65 % 0.00 in 30 W/m2
19:41 70.5 °F 58.2 °F 30.03 in WSW 1.0 mph 3.0 mph 65 % 0.00 in 25 W/m2
19:46 70.3 °F 58.0 °F 30.03 in WSW 1.0 mph 2.0 mph 65 % 0.00 in 21 W/m2
19:51 70.2 °F 58.3 °F 30.03 in Calm   2.0 mph 66 % 0.00 in 18 W/m2
19:56 70.0 °F 58.5 °F 30.03 in Calm   1.0 mph 67 % 0.00 in 14 W/m2
20:01 69.6 °F 58.6 °F 30.03 in Calm   1.0 mph 68 % 0.00 in 11 W/m2
20:06 69.4 °F 58.8 °F 30.03 in Calm     69 % 0.00 in 5 W/m2
20:11 69.3 °F 58.7 °F 30.03 in Calm     69 % 0.00 in 0 W/m2
20:16 68.9 °F 59.1 °F 30.03 in Calm     71 % 0.00 in 0 W/m2
20:21 68.5 °F 59.2 °F 30.03 in Calm     72 % 0.00 in 0 W/m2
20:26 68.2 °F 58.8 °F 30.04 in Calm     72 % 0.00 in 0 W/m2
20:31 67.8 °F 58.8 °F 30.04 in Calm   1.0 mph 73 % 0.00 in 0 W/m2
20:36 67.5 °F 58.5 °F 30.04 in Calm   3.0 mph 73 % 0.00 in 0 W/m2
20:41 67.3 °F 58.3 °F 30.04 in WSW 1.0 mph 4.0 mph 73 % 0.00 in 0 W/m2
20:46 66.9 °F 58.4 °F 30.04 in WSW 1.0 mph 5.0 mph 74 % 0.00 in 0 W/m2
20:51 66.7 °F 58.2 °F 30.04 in WSW 1.0 mph 5.0 mph 74 % 0.00 in 0 W/m2
20:56 66.4 °F 57.8 °F 30.04 in Calm   3.0 mph 74 % 0.00 in 0 W/m2
21:01 66.0 °F 57.9 °F 30.04 in Calm   1.0 mph 75 % 0.00 in 0 W/m2
21:06 65.8 °F 57.7 °F 30.05 in Calm   1.0 mph 75 % 0.00 in 0 W/m2
21:11 65.5 °F 57.7 °F 30.05 in Calm     76 % 0.00 in 0 W/m2
21:16 65.1 °F 57.4 °F 30.05 in Calm   2.0 mph 76 % 0.00 in 0 W/m2
21:21 64.8 °F 57.4 °F 30.05 in Calm   2.0 mph 77 % 0.00 in 0 W/m2
21:26 64.4 °F 57.0 °F 30.05 in Calm   2.0 mph 77 % 0.00 in 0 W/m2
21:31 64.2 °F 56.9 °F 30.05 in WSW 1.0 mph 4.0 mph 77 % 0.00 in 0 W/m2
21:36 63.9 °F 56.9 °F 30.05 in WNW 2.0 mph 5.0 mph 78 % 0.00 in 0 W/m2
21:41 63.9 °F 56.9 °F 30.05 in NW 2.0 mph 5.0 mph 78 % 0.00 in 0 W/m2
21:46 63.7 °F 57.0 °F 30.05 in NW 1.0 mph 4.0 mph 79 % 0.00 in 0 W/m2
21:51 63.3 °F 57.0 °F 30.05 in Calm     80 % 0.00 in 0 W/m2
21:56 63.1 °F 57.2 °F 30.05 in Calm     81 % 0.00 in 0 W/m2
22:01 62.8 °F 56.9 °F 30.05 in Calm     81 % 0.00 in 0 W/m2
22:06 62.4 °F 56.9 °F 30.05 in Calm     82 % 0.00 in 0 W/m2
22:11 62.2 °F 56.7 °F 30.05 in Calm     82 % 0.00 in 0 W/m2
22:16 62.1 °F 56.5 °F 30.05 in Calm     82 % 0.00 in 0 W/m2
22:21 61.9 °F 56.7 °F 30.05 in Calm     83 % 0.00 in 0 W/m2
22:26 61.7 °F 56.5 °F 30.05 in Calm     83 % 0.00 in 0 W/m2
22:31 61.5 °F 56.3 °F 30.05 in Calm     83 % 0.00 in 0 W/m2
22:36 61.3 °F 56.5 °F 30.05 in Calm     84 % 0.00 in 0 W/m2
22:41 61.2 °F 56.3 °F 30.05 in Calm     84 % 0.00 in 0 W/m2
22:46 61.2 °F 56.3 °F 30.05 in Calm     84 % 0.00 in 0 W/m2
22:51 61.0 °F 56.1 °F 30.05 in Calm     84 % 0.00 in 0 W/m2
22:56 61.0 °F 56.4 °F 30.05 in Calm     85 % 0.00 in 0 W/m2
23:01 60.8 °F 56.3 °F 30.05 in Calm     85 % 0.00 in 0 W/m2
23:06 60.8 °F 56.3 °F 30.05 in Calm     85 % 0.00 in 0 W/m2
23:11 60.6 °F 56.4 °F 30.05 in Calm     86 % 0.00 in 0 W/m2
23:16 60.6 °F 56.4 °F 30.05 in Calm   3.0 mph 86 % 0.00 in 0 W/m2
23:21 60.8 °F 56.6 °F 30.05 in Calm   3.0 mph 86 % 0.00 in 0 W/m2
23:27 60.8 °F 56.6 °F 30.05 in Calm     86 % 0.00 in 0 W/m2
23:32 60.8 °F 56.6 °F 30.05 in Calm     86 % 0.00 in 0 W/m2
23:37 60.8 °F 56.6 °F 30.05 in Calm   1.0 mph 86 % 0.00 in 0 W/m2
23:47 60.4 °F 55.9 °F 30.05 in Calm   2.0 mph 85 % 0.00 in 0 W/m2
23:52 60.3 °F 55.7 °F 30.05 in Calm     85 % 0.00 in 0 W/m2
23:57 60.1 °F 55.6 °F 30.05 in Calm     85 % 0.00 in 0 W/m2
Delerius-Weather
Compliments of Weather Underground - 2.25 mb

Data updates at regular intervals.